sensor_id;sensor_type;location;lat;lon;timestamp;P1;durP1;ratioP1;P2;durP2;ratioP2
17596;SDS011;8917;50.942;6.946;2023-04-25T00:02:21;10.50;;;4.03;;
17596;SDS011;8917;50.942;6.946;2023-04-25T00:04:49;9.10;;;3.87;;
17596;SDS011;8917;50.942;6.946;2023-04-25T00:07:16;9.40;;;3.60;;
17596;SDS011;8917;50.942;6.946;2023-04-25T00:09:44;9.40;;;4.20;;
17596;SDS011;8917;50.942;6.946;2023-04-25T00:12:11;7.70;;;3.93;;
17596;SDS011;8917;50.942;6.946;2023-04-25T00:14:38;10.57;;;4.27;;
17596;SDS011;8917;50.942;6.946;2023-04-25T00:17:05;10.40;;;4.40;;
17596;SDS011;8917;50.942;6.946;2023-04-25T00:19:33;8.20;;;4.10;;
17596;SDS011;8917;50.942;6.946;2023-04-25T00:22:01;6.93;;;3.57;;
17596;SDS011;8917;50.942;6.946;2023-04-25T00:24:28;11.13;;;3.90;;
17596;SDS011;8917;50.942;6.946;2023-04-25T00:26:56;8.07;;;3.97;;
17596;SDS011;8917;50.942;6.946;2023-04-25T00:29:23;7.67;;;4.00;;
17596;SDS011;8917;50.942;6.946;2023-04-25T00:31:50;6.70;;;3.93;;
17596;SDS011;8917;50.942;6.946;2023-04-25T00:34:17;9.70;;;4.07;;
17596;SDS011;8917;50.942;6.946;2023-04-25T00:36:44;10.23;;;4.00;;
17596;SDS011;8917;50.942;6.946;2023-04-25T00:39:13;10.30;;;4.20;;
17596;SDS011;8917;50.942;6.946;2023-04-25T00:41:40;6.17;;;3.77;;
17596;SDS011;8917;50.942;6.946;2023-04-25T00:44:08;7.37;;;4.03;;
17596;SDS011;8917;50.942;6.946;2023-04-25T00:46:36;8.73;;;4.50;;
17596;SDS011;8917;50.942;6.946;2023-04-25T00:49:03;10.60;;;4.00;;
17596;SDS011;8917;50.942;6.946;2023-04-25T00:51:30;10.17;;;4.50;;
17596;SDS011;8917;50.942;6.946;2023-04-25T00:53:59;13.30;;;4.80;;
17596;SDS011;8917;50.942;6.946;2023-04-25T00:56:28;9.77;;;4.67;;
17596;SDS011;8917;50.942;6.946;2023-04-25T00:58:55;9.73;;;4.83;;
17596;SDS011;8917;50.942;6.946;2023-04-25T01:01:23;12.23;;;4.40;;
17596;SDS011;8917;50.942;6.946;2023-04-25T01:03:50;11.10;;;4.37;;
17596;SDS011;8917;50.942;6.946;2023-04-25T01:06:17;10.27;;;4.63;;
17596;SDS011;8917;50.942;6.946;2023-04-25T01:08:44;12.00;;;4.47;;
17596;SDS011;8917;50.942;6.946;2023-04-25T01:11:12;11.60;;;4.63;;
17596;SDS011;8917;50.942;6.946;2023-04-25T01:13:41;11.60;;;4.23;;
17596;SDS011;8917;50.942;6.946;2023-04-25T01:16:08;12.43;;;4.20;;
17596;SDS011;8917;50.942;6.946;2023-04-25T01:18:38;10.77;;;4.10;;
17596;SDS011;8917;50.942;6.946;2023-04-25T01:21:08;12.30;;;4.43;;
17596;SDS011;8917;50.942;6.946;2023-04-25T01:23:35;13.57;;;4.90;;
17596;SDS011;8917;50.942;6.946;2023-04-25T01:26:03;11.00;;;4.20;;
17596;SDS011;8917;50.942;6.946;2023-04-25T01:28:30;12.47;;;4.90;;
17596;SDS011;8917;50.942;6.946;2023-04-25T01:30:58;10.70;;;4.47;;
17596;SDS011;8917;50.942;6.946;2023-04-25T01:33:25;11.93;;;5.13;;
17596;SDS011;8917;50.942;6.946;2023-04-25T01:35:53;8.73;;;4.37;;
17596;SDS011;8917;50.942;6.946;2023-04-25T01:38:21;9.77;;;4.70;;
17596;SDS011;8917;50.942;6.946;2023-04-25T01:40:48;10.73;;;4.33;;
17596;SDS011;8917;50.942;6.946;2023-04-25T01:43:17;10.23;;;4.37;;
17596;SDS011;8917;50.942;6.946;2023-04-25T01:45:45;12.53;;;4.43;;
17596;SDS011;8917;50.942;6.946;2023-04-25T01:48:12;7.23;;;4.43;;
17596;SDS011;8917;50.942;6.946;2023-04-25T01:50:40;15.00;;;4.30;;
17596;SDS011;8917;50.942;6.946;2023-04-25T01:53:08;12.77;;;4.37;;
17596;SDS011;8917;50.942;6.946;2023-04-25T01:55:37;10.77;;;4.13;;
17596;SDS011;8917;50.942;6.946;2023-04-25T01:58:04;11.10;;;4.17;;
17596;SDS011;8917;50.942;6.946;2023-04-25T02:00:34;9.03;;;4.03;;
17596;SDS011;8917;50.942;6.946;2023-04-25T02:03:03;12.23;;;4.80;;
17596;SDS011;8917;50.942;6.946;2023-04-25T02:05:33;11.47;;;4.60;;
17596;SDS011;8917;50.942;6.946;2023-04-25T02:08:01;13.33;;;4.50;;
17596;SDS011;8917;50.942;6.946;2023-04-25T02:10:28;10.70;;;4.10;;
17596;SDS011;8917;50.942;6.946;2023-04-25T02:12:57;10.33;;;3.50;;
17596;SDS011;8917;50.942;6.946;2023-04-25T02:15:25;7.40;;;3.80;;
17596;SDS011;8917;50.942;6.946;2023-04-25T02:17:52;10.67;;;4.30;;
17596;SDS011;8917;50.942;6.946;2023-04-25T02:20:20;12.80;;;4.10;;
17596;SDS011;8917;50.942;6.946;2023-04-25T02:22:48;9.17;;;4.40;;
17596;SDS011;8917;50.942;6.946;2023-04-25T02:25:15;8.17;;;3.63;;
17596;SDS011;8917;50.942;6.946;2023-04-25T02:27:42;10.30;;;3.73;;
17596;SDS011;8917;50.942;6.946;2023-04-25T02:30:12;8.93;;;3.90;;
17596;SDS011;8917;50.942;6.946;2023-04-25T02:32:39;11.37;;;3.87;;
17596;SDS011;8917;50.942;6.946;2023-04-25T02:35:07;8.17;;;3.80;;
17596;SDS011;8917;50.942;6.946;2023-04-25T02:37:34;8.87;;;4.17;;
17596;SDS011;8917;50.942;6.946;2023-04-25T02:40:02;8.53;;;3.67;;
17596;SDS011;8917;50.942;6.946;2023-04-25T02:42:29;11.47;;;3.83;;
17596;SDS011;8917;50.942;6.946;2023-04-25T02:44:57;8.53;;;3.90;;
17596;SDS011;8917;50.942;6.946;2023-04-25T02:47:25;10.13;;;3.37;;
17596;SDS011;8917;50.942;6.946;2023-04-25T02:49:52;8.30;;;3.23;;
17596;SDS011;8917;50.942;6.946;2023-04-25T02:52:19;13.10;;;4.07;;
17596;SDS011;8917;50.942;6.946;2023-04-25T02:54:47;8.20;;;3.00;;
17596;SDS011;8917;50.942;6.946;2023-04-25T02:57:14;8.27;;;3.80;;
17596;SDS011;8917;50.942;6.946;2023-04-25T02:59:41;9.77;;;3.73;;
17596;SDS011;8917;50.942;6.946;2023-04-25T03:02:09;8.47;;;3.47;;
17596;SDS011;8917;50.942;6.946;2023-04-25T03:04:38;9.90;;;3.57;;
17596;SDS011;8917;50.942;6.946;2023-04-25T03:07:05;9.50;;;3.30;;
17596;SDS011;8917;50.942;6.946;2023-04-25T03:09:32;7.87;;;3.17;;
17596;SDS011;8917;50.942;6.946;2023-04-25T03:11:59;10.33;;;3.93;;
17596;SDS011;8917;50.942;6.946;2023-04-25T03:14:26;9.97;;;3.50;;
17596;SDS011;8917;50.942;6.946;2023-04-25T03:16:54;7.77;;;3.43;;
17596;SDS011;8917;50.942;6.946;2023-04-25T03:19:21;7.67;;;3.90;;
17596;SDS011;8917;50.942;6.946;2023-04-25T03:21:49;9.73;;;3.70;;
17596;SDS011;8917;50.942;6.946;2023-04-25T03:24:17;8.20;;;3.50;;
17596;SDS011;8917;50.942;6.946;2023-04-25T03:26:44;7.73;;;3.53;;
17596;SDS011;8917;50.942;6.946;2023-04-25T03:29:11;6.37;;;3.73;;
17596;SDS011;8917;50.942;6.946;2023-04-25T03:31:38;7.23;;;3.37;;
17596;SDS011;8917;50.942;6.946;2023-04-25T03:34:05;6.23;;;3.40;;
17596;SDS011;8917;50.942;6.946;2023-04-25T03:36:32;5.70;;;3.67;;
17596;SDS011;8917;50.942;6.946;2023-04-25T03:39:01;7.20;;;3.20;;
17596;SDS011;8917;50.942;6.946;2023-04-25T03:41:28;6.90;;;3.83;;
17596;SDS011;8917;50.942;6.946;2023-04-25T03:43:55;9.40;;;3.40;;
17596;SDS011;8917;50.942;6.946;2023-04-25T03:46:23;9.33;;;3.37;;
17596;SDS011;8917;50.942;6.946;2023-04-25T03:48:50;8.73;;;3.63;;
17596;SDS011;8917;50.942;6.946;2023-04-25T03:51:17;9.00;;;4.17;;
17596;SDS011;8917;50.942;6.946;2023-04-25T03:53:44;7.60;;;3.60;;
17596;SDS011;8917;50.942;6.946;2023-04-25T03:56:13;6.77;;;3.70;;
17596;SDS011;8917;50.942;6.946;2023-04-25T03:58:40;7.67;;;3.50;;
17596;SDS011;8917;50.942;6.946;2023-04-25T04:01:07;6.20;;;3.80;;
17596;SDS011;8917;50.942;6.946;2023-04-25T04:03:34;12.07;;;3.80;;
17596;SDS011;8917;50.942;6.946;2023-04-25T04:06:02;7.90;;;3.70;;
17596;SDS011;8917;50.942;6.946;2023-04-25T04:08:30;7.60;;;3.43;;
17596;SDS011;8917;50.942;6.946;2023-04-25T04:10:57;9.73;;;4.30;;
17596;SDS011;8917;50.942;6.946;2023-04-25T04:13:26;7.30;;;3.87;;
17596;SDS011;8917;50.942;6.946;2023-04-25T04:15:53;11.23;;;4.23;;
17596;SDS011;8917;50.942;6.946;2023-04-25T04:18:22;8.17;;;3.80;;
17596;SDS011;8917;50.942;6.946;2023-04-25T04:20:49;8.83;;;4.43;;
17596;SDS011;8917;50.942;6.946;2023-04-25T04:23:16;8.37;;;3.90;;
17596;SDS011;8917;50.942;6.946;2023-04-25T04:25:44;7.20;;;3.83;;
17596;SDS011;8917;50.942;6.946;2023-04-25T04:28:11;8.97;;;4.00;;
17596;SDS011;8917;50.942;6.946;2023-04-25T04:30:40;5.07;;;3.30;;
17596;SDS011;8917;50.942;6.946;2023-04-25T04:33:12;7.93;;;4.47;;
17596;SDS011;8917;50.942;6.946;2023-04-25T04:35:40;6.67;;;3.47;;
17596;SDS011;8917;50.942;6.946;2023-04-25T04:38:07;9.93;;;4.67;;
17596;SDS011;8917;50.942;6.946;2023-04-25T04:40:35;7.60;;;3.93;;
17596;SDS011;8917;50.942;6.946;2023-04-25T04:43:03;10.97;;;3.97;;
17596;SDS011;8917;50.942;6.946;2023-04-25T04:45:30;11.10;;;3.80;;
17596;SDS011;8917;50.942;6.946;2023-04-25T04:47:59;9.77;;;4.33;;
17596;SDS011;8917;50.942;6.946;2023-04-25T04:50:27;8.70;;;3.97;;
17596;SDS011;8917;50.942;6.946;2023-04-25T04:52:54;10.30;;;4.00;;
17596;SDS011;8917;50.942;6.946;2023-04-25T04:55:21;6.27;;;3.80;;
17596;SDS011;8917;50.942;6.946;2023-04-25T04:57:48;10.50;;;3.80;;
17596;SDS011;8917;50.942;6.946;2023-04-25T05:00:16;12.20;;;4.10;;
17596;SDS011;8917;50.942;6.946;2023-04-25T05:02:43;8.83;;;4.30;;
17596;SDS011;8917;50.942;6.946;2023-04-25T05:05:11;9.33;;;3.93;;
17596;SDS011;8917;50.942;6.946;2023-04-25T05:07:39;7.77;;;3.80;;
17596;SDS011;8917;50.942;6.946;2023-04-25T05:10:06;13.07;;;4.70;;
17596;SDS011;8917;50.942;6.946;2023-04-25T05:12:33;11.57;;;4.60;;
17596;SDS011;8917;50.942;6.946;2023-04-25T05:15:01;6.77;;;4.10;;
17596;SDS011;8917;50.942;6.946;2023-04-25T05:17:28;7.23;;;4.63;;
17596;SDS011;8917;50.942;6.946;2023-04-25T05:19:55;10.03;;;4.20;;
17596;SDS011;8917;50.942;6.946;2023-04-25T05:22:23;10.47;;;4.37;;
17596;SDS011;8917;50.942;6.946;2023-04-25T05:24:51;9.27;;;4.50;;
17596;SDS011;8917;50.942;6.946;2023-04-25T05:27:18;7.80;;;4.00;;
17596;SDS011;8917;50.942;6.946;2023-04-25T05:29:45;10.10;;;4.50;;
17596;SDS011;8917;50.942;6.946;2023-04-25T05:32:13;9.20;;;5.33;;
17596;SDS011;8917;50.942;6.946;2023-04-25T05:34:40;12.40;;;4.60;;
17596;SDS011;8917;50.942;6.946;2023-04-25T05:37:07;12.23;;;4.47;;
17596;SDS011;8917;50.942;6.946;2023-04-25T05:39:36;10.27;;;3.93;;
17596;SDS011;8917;50.942;6.946;2023-04-25T05:42:03;11.50;;;4.20;;
17596;SDS011;8917;50.942;6.946;2023-04-25T05:44:30;12.70;;;4.90;;
17596;SDS011;8917;50.942;6.946;2023-04-25T05:46:57;14.23;;;5.43;;
17596;SDS011;8917;50.942;6.946;2023-04-25T05:49:24;12.30;;;4.83;;
17596;SDS011;8917;50.942;6.946;2023-04-25T05:51:51;18.93;;;9.83;;
17596;SDS011;8917;50.942;6.946;2023-04-25T05:54:19;11.50;;;4.73;;
17596;SDS011;8917;50.942;6.946;2023-04-25T05:56:48;11.23;;;4.23;;
17596;SDS011;8917;50.942;6.946;2023-04-25T05:59:15;10.30;;;4.13;;
17596;SDS011;8917;50.942;6.946;2023-04-25T06:01:42;10.90;;;4.53;;
17596;SDS011;8917;50.942;6.946;2023-04-25T06:04:09;11.70;;;4.57;;
17596;SDS011;8917;50.942;6.946;2023-04-25T06:06:36;11.60;;;4.13;;
17596;SDS011;8917;50.942;6.946;2023-04-25T06:09:04;14.83;;;5.80;;
17596;SDS011;8917;50.942;6.946;2023-04-25T06:11:31;9.70;;;4.13;;
17596;SDS011;8917;50.942;6.946;2023-04-25T06:13:59;10.97;;;5.17;;
17596;SDS011;8917;50.942;6.946;2023-04-25T06:16:27;11.70;;;4.87;;
17596;SDS011;8917;50.942;6.946;2023-04-25T06:18:54;10.67;;;4.17;;
17596;SDS011;8917;50.942;6.946;2023-04-25T06:21:21;10.37;;;4.10;;
17596;SDS011;8917;50.942;6.946;2023-04-25T06:23:48;9.67;;;4.03;;
17596;SDS011;8917;50.942;6.946;2023-04-25T06:26:15;10.73;;;3.93;;
17596;SDS011;8917;50.942;6.946;2023-04-25T06:28:42;11.60;;;4.43;;
17596;SDS011;8917;50.942;6.946;2023-04-25T06:31:11;11.03;;;4.17;;
17596;SDS011;8917;50.942;6.946;2023-04-25T06:33:38;8.80;;;3.63;;
17596;SDS011;8917;50.942;6.946;2023-04-25T06:36:05;12.00;;;4.97;;
17596;SDS011;8917;50.942;6.946;2023-04-25T06:38:33;15.97;;;4.83;;
17596;SDS011;8917;50.942;6.946;2023-04-25T06:41:00;12.77;;;4.40;;
17596;SDS011;8917;50.942;6.946;2023-04-25T06:43:27;7.67;;;4.57;;
17596;SDS011;8917;50.942;6.946;2023-04-25T06:45:57;13.37;;;4.17;;
17596;SDS011;8917;50.942;6.946;2023-04-25T06:48:26;11.20;;;4.37;;
17596;SDS011;8917;50.942;6.946;2023-04-25T06:50:53;15.97;;;5.20;;
17596;SDS011;8917;50.942;6.946;2023-04-25T06:53:21;15.23;;;5.40;;
17596;SDS011;8917;50.942;6.946;2023-04-25T06:55:48;9.40;;;4.87;;
17596;SDS011;8917;50.942;6.946;2023-04-25T06:58:16;11.67;;;4.53;;
17596;SDS011;8917;50.942;6.946;2023-04-25T07:00:43;11.37;;;4.30;;
17596;SDS011;8917;50.942;6.946;2023-04-25T07:03:10;12.07;;;4.97;;
17596;SDS011;8917;50.942;6.946;2023-04-25T07:05:39;17.20;;;6.03;;
17596;SDS011;8917;50.942;6.946;2023-04-25T07:08:06;13.27;;;4.90;;
17596;SDS011;8917;50.942;6.946;2023-04-25T07:10:33;10.30;;;4.13;;
17596;SDS011;8917;50.942;6.946;2023-04-25T07:13:01;9.87;;;3.80;;
17596;SDS011;8917;50.942;6.946;2023-04-25T07:15:28;12.80;;;4.57;;
17596;SDS011;8917;50.942;6.946;2023-04-25T07:17:55;24.93;;;13.23;;
17596;SDS011;8917;50.942;6.946;2023-04-25T07:20:22;10.47;;;4.03;;
17596;SDS011;8917;50.942;6.946;2023-04-25T07:22:51;7.47;;;3.07;;
17596;SDS011;8917;50.942;6.946;2023-04-25T07:25:18;7.67;;;3.50;;
17596;SDS011;8917;50.942;6.946;2023-04-25T07:27:46;10.30;;;3.37;;
17596;SDS011;8917;50.942;6.946;2023-04-25T07:30:13;12.83;;;3.87;;
17596;SDS011;8917;50.942;6.946;2023-04-25T07:32:40;13.40;;;3.70;;
17596;SDS011;8917;50.942;6.946;2023-04-25T07:35:08;9.37;;;3.57;;
17596;SDS011;8917;50.942;6.946;2023-04-25T07:37:35;10.23;;;3.33;;
17596;SDS011;8917;50.942;6.946;2023-04-25T07:40:04;9.70;;;3.57;;
17596;SDS011;8917;50.942;6.946;2023-04-25T07:42:32;9.43;;;4.57;;
17596;SDS011;8917;50.942;6.946;2023-04-25T07:45:00;10.30;;;3.83;;
17596;SDS011;8917;50.942;6.946;2023-04-25T07:47:27;8.73;;;3.67;;
17596;SDS011;8917;50.942;6.946;2023-04-25T07:49:54;8.27;;;3.50;;
17596;SDS011;8917;50.942;6.946;2023-04-25T07:52:23;9.40;;;3.57;;
17596;SDS011;8917;50.942;6.946;2023-04-25T07:54:50;9.70;;;3.80;;
17596;SDS011;8917;50.942;6.946;2023-04-25T07:57:19;12.20;;;4.57;;
17596;SDS011;8917;50.942;6.946;2023-04-25T07:59:46;14.40;;;4.23;;
17596;SDS011;8917;50.942;6.946;2023-04-25T08:02:13;9.07;;;3.90;;
17596;SDS011;8917;50.942;6.946;2023-04-25T08:04:40;9.50;;;4.20;;
17596;SDS011;8917;50.942;6.946;2023-04-25T08:07:07;8.57;;;3.97;;
17596;SDS011;8917;50.942;6.946;2023-04-25T08:09:34;10.20;;;3.93;;
17596;SDS011;8917;50.942;6.946;2023-04-25T08:12:02;11.03;;;4.07;;
17596;SDS011;8917;50.942;6.946;2023-04-25T08:14:31;10.37;;;3.73;;
17596;SDS011;8917;50.942;6.946;2023-04-25T08:17:01;10.37;;;4.23;;
17596;SDS011;8917;50.942;6.946;2023-04-25T08:19:28;8.70;;;4.07;;
17596;SDS011;8917;50.942;6.946;2023-04-25T08:21:56;9.63;;;3.80;;
17596;SDS011;8917;50.942;6.946;2023-04-25T08:24:23;13.90;;;7.40;;
17596;SDS011;8917;50.942;6.946;2023-04-25T08:26:50;10.30;;;3.93;;
17596;SDS011;8917;50.942;6.946;2023-04-25T08:29:18;9.87;;;3.40;;
17596;SDS011;8917;50.942;6.946;2023-04-25T08:31:47;8.77;;;3.37;;
17596;SDS011;8917;50.942;6.946;2023-04-25T08:34:15;8.37;;;3.10;;
17596;SDS011;8917;50.942;6.946;2023-04-25T08:36:42;9.23;;;3.70;;
17596;SDS011;8917;50.942;6.946;2023-04-25T08:39:10;7.80;;;2.93;;
17596;SDS011;8917;50.942;6.946;2023-04-25T08:41:38;7.53;;;2.70;;
17596;SDS011;8917;50.942;6.946;2023-04-25T08:44:05;12.03;;;3.33;;
17596;SDS011;8917;50.942;6.946;2023-04-25T08:46:35;8.03;;;2.83;;
17596;SDS011;8917;50.942;6.946;2023-04-25T08:49:06;8.63;;;2.70;;
17596;SDS011;8917;50.942;6.946;2023-04-25T08:51:34;10.70;;;3.53;;
17596;SDS011;8917;50.942;6.946;2023-04-25T08:54:06;6.77;;;2.30;;
17596;SDS011;8917;50.942;6.946;2023-04-25T08:56:35;9.63;;;2.90;;
17596;SDS011;8917;50.942;6.946;2023-04-25T08:59:02;8.57;;;3.20;;
17596;SDS011;8917;50.942;6.946;2023-04-25T09:01:32;8.80;;;2.27;;
17596;SDS011;8917;50.942;6.946;2023-04-25T09:04:00;9.03;;;3.30;;
17596;SDS011;8917;50.942;6.946;2023-04-25T09:09:02;10.77;;;3.97;;
17596;SDS011;8917;50.942;6.946;2023-04-25T09:11:30;9.93;;;3.40;;
17596;SDS011;8917;50.942;6.946;2023-04-25T09:14:09;6.60;;;2.57;;
17596;SDS011;8917;50.942;6.946;2023-04-25T09:16:42;9.50;;;2.90;;
17596;SDS011;8917;50.942;6.946;2023-04-25T09:19:24;7.53;;;3.10;;
17596;SDS011;8917;50.942;6.946;2023-04-25T09:21:53;9.77;;;2.70;;
17596;SDS011;8917;50.942;6.946;2023-04-25T09:24:30;8.03;;;3.03;;
17596;SDS011;8917;50.942;6.946;2023-04-25T09:26:58;8.63;;;2.73;;
17596;SDS011;8917;50.942;6.946;2023-04-25T09:29:29;6.40;;;2.83;;
17596;SDS011;8917;50.942;6.946;2023-04-25T09:32:15;8.80;;;2.90;;
17596;SDS011;8917;50.942;6.946;2023-04-25T09:34:43;8.30;;;2.70;;
17596;SDS011;8917;50.942;6.946;2023-04-25T09:37:13;7.17;;;2.70;;
17596;SDS011;8917;50.942;6.946;2023-04-25T09:39:45;6.57;;;2.67;;
17596;SDS011;8917;50.942;6.946;2023-04-25T09:42:13;6.00;;;2.20;;
17596;SDS011;8917;50.942;6.946;2023-04-25T09:44:42;6.87;;;2.43;;
17596;SDS011;8917;50.942;6.946;2023-04-25T09:47:10;7.70;;;2.73;;
17596;SDS011;8917;50.942;6.946;2023-04-25T09:49:38;10.90;;;2.50;;
17596;SDS011;8917;50.942;6.946;2023-04-25T09:52:06;6.07;;;2.80;;
17596;SDS011;8917;50.942;6.946;2023-04-25T09:54:33;10.63;;;3.70;;
17596;SDS011;8917;50.942;6.946;2023-04-25T09:57:03;9.33;;;3.33;;
17596;SDS011;8917;50.942;6.946;2023-04-25T09:59:32;7.13;;;2.53;;
17596;SDS011;8917;50.942;6.946;2023-04-25T10:02:01;7.70;;;2.67;;
17596;SDS011;8917;50.942;6.946;2023-04-25T10:04:29;8.97;;;2.70;;
17596;SDS011;8917;50.942;6.946;2023-04-25T10:06:57;9.43;;;2.70;;
17596;SDS011;8917;50.942;6.946;2023-04-25T10:09:25;5.77;;;2.50;;
17596;SDS011;8917;50.942;6.946;2023-04-25T10:11:55;9.70;;;2.53;;
17596;SDS011;8917;50.942;6.946;2023-04-25T10:14:25;5.80;;;2.30;;
17596;SDS011;8917;50.942;6.946;2023-04-25T10:16:52;8.90;;;2.63;;
17596;SDS011;8917;50.942;6.946;2023-04-25T10:19:20;7.83;;;2.97;;
17596;SDS011;8917;50.942;6.946;2023-04-25T10:21:50;5.70;;;2.90;;
17596;SDS011;8917;50.942;6.946;2023-04-25T10:24:18;8.23;;;4.13;;
17596;SDS011;8917;50.942;6.946;2023-04-25T10:26:46;8.37;;;2.20;;
17596;SDS011;8917;50.942;6.946;2023-04-25T10:29:15;8.20;;;2.33;;
17596;SDS011;8917;50.942;6.946;2023-04-25T10:31:49;4.77;;;2.10;;
17596;SDS011;8917;50.942;6.946;2023-04-25T10:34:16;7.03;;;2.80;;
17596;SDS011;8917;50.942;6.946;2023-04-25T10:36:49;9.40;;;2.83;;
17596;SDS011;8917;50.942;6.946;2023-04-25T10:39:21;7.67;;;2.80;;
17596;SDS011;8917;50.942;6.946;2023-04-25T10:41:52;4.27;;;2.00;;
17596;SDS011;8917;50.942;6.946;2023-04-25T10:44:20;7.30;;;2.07;;
17596;SDS011;8917;50.942;6.946;2023-04-25T10:46:47;6.00;;;2.17;;
17596;SDS011;8917;50.942;6.946;2023-04-25T10:49:29;5.67;;;2.10;;
17596;SDS011;8917;50.942;6.946;2023-04-25T10:52:16;7.30;;;2.40;;
17596;SDS011;8917;50.942;6.946;2023-04-25T10:54:47;7.23;;;2.23;;
17596;SDS011;8917;50.942;6.946;2023-04-25T10:57:32;5.30;;;2.40;;
17596;SDS011;8917;50.942;6.946;2023-04-25T11:00:06;5.97;;;3.00;;
17596;SDS011;8917;50.942;6.946;2023-04-25T11:02:42;7.77;;;2.47;;
17596;SDS011;8917;50.942;6.946;2023-04-25T11:05:11;7.30;;;2.50;;
17596;SDS011;8917;50.942;6.946;2023-04-25T11:07:44;8.60;;;2.30;;
17596;SDS011;8917;50.942;6.946;2023-04-25T11:10:15;8.83;;;2.50;;
17596;SDS011;8917;50.942;6.946;2023-04-25T11:12:42;6.43;;;2.27;;
17596;SDS011;8917;50.942;6.946;2023-04-25T11:15:09;9.17;;;2.13;;
17596;SDS011;8917;50.942;6.946;2023-04-25T11:17:36;5.50;;;1.87;;
17596;SDS011;8917;50.942;6.946;2023-04-25T11:20:05;7.57;;;2.50;;
17596;SDS011;8917;50.942;6.946;2023-04-25T11:22:37;4.40;;;2.23;;
17596;SDS011;8917;50.942;6.946;2023-04-25T11:25:06;4.03;;;2.23;;
17596;SDS011;8917;50.942;6.946;2023-04-25T11:27:33;6.23;;;2.10;;
17596;SDS011;8917;50.942;6.946;2023-04-25T11:30:10;8.70;;;2.20;;
17596;SDS011;8917;50.942;6.946;2023-04-25T11:32:39;5.63;;;2.27;;
17596;SDS011;8917;50.942;6.946;2023-04-25T11:35:07;4.20;;;2.00;;
17596;SDS011;8917;50.942;6.946;2023-04-25T11:37:34;5.53;;;2.40;;
17596;SDS011;8917;50.942;6.946;2023-04-25T11:40:03;3.30;;;1.90;;
17596;SDS011;8917;50.942;6.946;2023-04-25T11:42:31;7.17;;;2.37;;
17596;SDS011;8917;50.942;6.946;2023-04-25T11:44:59;6.27;;;2.17;;
17596;SDS011;8917;50.942;6.946;2023-04-25T11:47:29;5.30;;;2.10;;
17596;SDS011;8917;50.942;6.946;2023-04-25T11:49:57;5.43;;;2.20;;
17596;SDS011;8917;50.942;6.946;2023-04-25T11:52:34;4.30;;;2.40;;
17596;SDS011;8917;50.942;6.946;2023-04-25T11:55:05;6.70;;;2.37;;
17596;SDS011;8917;50.942;6.946;2023-04-25T11:57:32;5.27;;;1.97;;
17596;SDS011;8917;50.942;6.946;2023-04-25T12:00:07;4.87;;;1.90;;
17596;SDS011;8917;50.942;6.946;2023-04-25T12:02:36;3.50;;;1.80;;
17596;SDS011;8917;50.942;6.946;2023-04-25T12:05:05;6.80;;;2.03;;
17596;SDS011;8917;50.942;6.946;2023-04-25T12:07:33;4.47;;;2.07;;
17596;SDS011;8917;50.942;6.946;2023-04-25T12:10:05;5.63;;;1.83;;
17596;SDS011;8917;50.942;6.946;2023-04-25T12:12:33;3.20;;;1.63;;
17596;SDS011;8917;50.942;6.946;2023-04-25T12:15:10;5.43;;;1.80;;
17596;SDS011;8917;50.942;6.946;2023-04-25T12:17:39;2.53;;;1.50;;
17596;SDS011;8917;50.942;6.946;2023-04-25T12:20:07;5.17;;;2.20;;
17596;SDS011;8917;50.942;6.946;2023-04-25T12:22:35;2.93;;;1.60;;
17596;SDS011;8917;50.942;6.946;2023-04-25T12:25:02;3.40;;;1.50;;
17596;SDS011;8917;50.942;6.946;2023-04-25T12:27:31;4.97;;;1.73;;
17596;SDS011;8917;50.942;6.946;2023-04-25T12:29:58;4.10;;;2.17;;
17596;SDS011;8917;50.942;6.946;2023-04-25T12:32:26;7.43;;;3.20;;
17596;SDS011;8917;50.942;6.946;2023-04-25T12:34:54;7.40;;;1.90;;
17596;SDS011;8917;50.942;6.946;2023-04-25T12:37:21;2.27;;;1.50;;
17596;SDS011;8917;50.942;6.946;2023-04-25T12:39:48;4.10;;;1.97;;
17596;SDS011;8917;50.942;6.946;2023-04-25T12:42:15;5.00;;;2.20;;
17596;SDS011;8917;50.942;6.946;2023-04-25T12:44:44;5.07;;;1.90;;
17596;SDS011;8917;50.942;6.946;2023-04-25T12:47:11;6.87;;;1.83;;
17596;SDS011;8917;50.942;6.946;2023-04-25T12:49:38;5.80;;;1.93;;
17596;SDS011;8917;50.942;6.946;2023-04-25T12:52:06;5.57;;;2.23;;
17596;SDS011;8917;50.942;6.946;2023-04-25T12:54:33;4.03;;;2.07;;
17596;SDS011;8917;50.942;6.946;2023-04-25T12:57:00;3.53;;;1.83;;
17596;SDS011;8917;50.942;6.946;2023-04-25T12:59:28;4.70;;;2.40;;
17596;SDS011;8917;50.942;6.946;2023-04-25T13:01:56;4.43;;;2.07;;
17596;SDS011;8917;50.942;6.946;2023-04-25T13:04:24;5.60;;;2.10;;
17596;SDS011;8917;50.942;6.946;2023-04-25T13:06:51;4.47;;;1.93;;
17596;SDS011;8917;50.942;6.946;2023-04-25T13:09:18;6.07;;;1.97;;
17596;SDS011;8917;50.942;6.946;2023-04-25T13:11:46;2.07;;;1.50;;
17596;SDS011;8917;50.942;6.946;2023-04-25T13:14:13;6.80;;;2.10;;
17596;SDS011;8917;50.942;6.946;2023-04-25T13:16:40;4.87;;;1.70;;
17596;SDS011;8917;50.942;6.946;2023-04-25T13:19:09;5.50;;;1.77;;
17596;SDS011;8917;50.942;6.946;2023-04-25T13:21:37;4.10;;;1.83;;
17596;SDS011;8917;50.942;6.946;2023-04-25T13:24:05;7.63;;;2.17;;
17596;SDS011;8917;50.942;6.946;2023-04-25T13:26:32;2.93;;;1.67;;
17596;SDS011;8917;50.942;6.946;2023-04-25T13:28:59;8.13;;;2.40;;
17596;SDS011;8917;50.942;6.946;2023-04-25T13:31:28;5.53;;;1.70;;
17596;SDS011;8917;50.942;6.946;2023-04-25T13:33:56;2.63;;;1.50;;
17596;SDS011;8917;50.942;6.946;2023-04-25T13:36:25;2.47;;;1.30;;
17596;SDS011;8917;50.942;6.946;2023-04-25T13:38:52;2.93;;;1.40;;
17596;SDS011;8917;50.942;6.946;2023-04-25T13:41:20;6.40;;;1.77;;
17596;SDS011;8917;50.942;6.946;2023-04-25T13:43:47;3.67;;;1.57;;
17596;SDS011;8917;50.942;6.946;2023-04-25T13:46:14;3.20;;;1.67;;
17596;SDS011;8917;50.942;6.946;2023-04-25T13:48:41;3.47;;;1.47;;
17596;SDS011;8917;50.942;6.946;2023-04-25T13:51:13;3.53;;;1.50;;
17596;SDS011;8917;50.942;6.946;2023-04-25T13:53:42;3.40;;;1.40;;
17596;SDS011;8917;50.942;6.946;2023-04-25T13:56:09;3.23;;;1.63;;
17596;SDS011;8917;50.942;6.946;2023-04-25T13:58:37;2.17;;;1.50;;
17596;SDS011;8917;50.942;6.946;2023-04-25T14:01:05;5.30;;;1.70;;
17596;SDS011;8917;50.942;6.946;2023-04-25T14:03:32;5.57;;;1.30;;
17596;SDS011;8917;50.942;6.946;2023-04-25T14:05:59;4.63;;;1.30;;
17596;SDS011;8917;50.942;6.946;2023-04-25T14:08:27;2.97;;;1.60;;
17596;SDS011;8917;50.942;6.946;2023-04-25T14:10:56;2.70;;;1.37;;
17596;SDS011;8917;50.942;6.946;2023-04-25T14:13:23;3.20;;;1.40;;
17596;SDS011;8917;50.942;6.946;2023-04-25T14:15:50;4.13;;;2.37;;
17596;SDS011;8917;50.942;6.946;2023-04-25T14:18:17;5.03;;;2.60;;
17596;SDS011;8917;50.942;6.946;2023-04-25T14:20:45;5.23;;;1.60;;
17596;SDS011;8917;50.942;6.946;2023-04-25T14:23:14;2.70;;;1.50;;
17596;SDS011;8917;50.942;6.946;2023-04-25T14:25:42;5.33;;;1.90;;
17596;SDS011;8917;50.942;6.946;2023-04-25T14:28:12;3.10;;;1.67;;
17596;SDS011;8917;50.942;6.946;2023-04-25T14:30:39;2.87;;;1.30;;
17596;SDS011;8917;50.942;6.946;2023-04-25T14:33:06;2.30;;;1.77;;
17596;SDS011;8917;50.942;6.946;2023-04-25T14:35:34;4.57;;;1.63;;
17596;SDS011;8917;50.942;6.946;2023-04-25T14:38:01;3.87;;;1.70;;
17596;SDS011;8917;50.942;6.946;2023-04-25T14:40:29;3.90;;;1.50;;
17596;SDS011;8917;50.942;6.946;2023-04-25T14:42:56;3.27;;;1.13;;
17596;SDS011;8917;50.942;6.946;2023-04-25T14:45:24;3.27;;;1.20;;
17596;SDS011;8917;50.942;6.946;2023-04-25T14:47:52;2.77;;;1.37;;
17596;SDS011;8917;50.942;6.946;2023-04-25T14:50:19;3.73;;;1.40;;
17596;SDS011;8917;50.942;6.946;2023-04-25T14:52:46;7.90;;;1.60;;
17596;SDS011;8917;50.942;6.946;2023-04-25T14:55:13;3.33;;;1.23;;
17596;SDS011;8917;50.942;6.946;2023-04-25T14:57:40;3.73;;;1.70;;
17596;SDS011;8917;50.942;6.946;2023-04-25T15:00:08;1.93;;;1.30;;
17596;SDS011;8917;50.942;6.946;2023-04-25T15:02:40;4.50;;;1.70;;
17596;SDS011;8917;50.942;6.946;2023-04-25T15:05:07;3.57;;;1.73;;
17596;SDS011;8917;50.942;6.946;2023-04-25T15:07:34;3.33;;;1.67;;